sensor_id;sensor_type;location;lat;lon;timestamp;pressure;altitude;pressure_sealevel;temperature;humidity
44198;BME280;30157;55.512;37.764;2023-05-16T00:00:17;100571.03;;;8.47;70.84
44198;BME280;30157;55.512;37.764;2023-05-16T00:02:43;100619.78;;;8.76;71.11
44198;BME280;30157;55.512;37.764;2023-05-16T00:05:09;100575.41;;;8.50;70.98
44198;BME280;30157;55.512;37.764;2023-05-16T00:07:37;100622.50;;;8.84;71.00
44198;BME280;30157;55.512;37.764;2023-05-16T00:10:03;100619.94;;;8.87;70.82
44198;BME280;30157;55.512;37.764;2023-05-16T00:12:30;100565.09;;;8.53;70.64
44198;BME280;30157;55.512;37.764;2023-05-16T00:14:57;100585.16;;;8.68;70.68
44198;BME280;30157;55.512;37.764;2023-05-16T00:17:23;100616.47;;;8.85;70.32
44198;BME280;30157;55.512;37.764;2023-05-16T00:19:54;100560.75;;;8.52;70.44
44198;BME280;30157;55.512;37.764;2023-05-16T00:22:23;100626.00;;;8.86;70.34
44198;BME280;30157;55.512;37.764;2023-05-16T00:24:49;100617.16;;;8.73;70.37
44198;BME280;30157;55.512;37.764;2023-05-16T00:27:14;100633.72;;;8.84;70.46
44198;BME280;30157;55.512;37.764;2023-05-16T00:29:41;100611.22;;;8.80;70.19
44198;BME280;30157;55.512;37.764;2023-05-16T00:32:07;100628.69;;;8.94;70.17
44198;BME280;30157;55.512;37.764;2023-05-16T00:34:33;100556.53;;;8.57;69.95
44198;BME280;30157;55.512;37.764;2023-05-16T00:36:59;100631.41;;;9.04;69.60
44198;BME280;30157;55.512;37.764;2023-05-16T00:39:25;100608.91;;;9.00;69.65
44198;BME280;30157;55.512;37.764;2023-05-16T00:41:51;100621.94;;;9.03;69.98
44198;BME280;30157;55.512;37.764;2023-05-16T00:44:17;100613.97;;;8.91;70.44
44198;BME280;30157;55.512;37.764;2023-05-16T00:46:42;100586.75;;;8.60;70.53
44198;BME280;30157;55.512;37.764;2023-05-16T00:49:08;100586.44;;;8.43;70.73
44198;BME280;30157;55.512;37.764;2023-05-16T00:51:35;100617.00;;;8.64;71.08
44198;BME280;30157;55.512;37.764;2023-05-16T00:54:04;100579.78;;;8.54;71.18
44198;BME280;30157;55.512;37.764;2023-05-16T00:56:30;100649.47;;;8.97;70.80
44198;BME280;30157;55.512;37.764;2023-05-16T00:58:56;100635.63;;;8.98;70.53
44198;BME280;30157;55.512;37.764;2023-05-16T01:01:24;100636.59;;;9.04;70.17
44198;BME280;30157;55.512;37.764;2023-05-16T01:03:51;100638.47;;;9.15;69.78
44198;BME280;30157;55.512;37.764;2023-05-16T01:06:18;100586.34;;;8.90;69.27
44198;BME280;30157;55.512;37.764;2023-05-16T01:08:44;100655.94;;;9.28;69.07
44198;BME280;30157;55.512;37.764;2023-05-16T01:17:07;100614.38;;;9.20;68.37
44198;BME280;30157;55.512;37.764;2023-05-16T01:19:54;100594.41;;;9.12;68.51
44198;BME280;30157;55.512;37.764;2023-05-16T01:28:01;100640.53;;;9.37;68.65
44198;BME280;30157;55.512;37.764;2023-05-16T01:30:36;100653.53;;;9.42;68.78
44198;BME280;30157;55.512;37.764;2023-05-16T01:33:02;100649.16;;;9.38;68.83
44198;BME280;30157;55.512;37.764;2023-05-16T01:35:28;100648.22;;;9.33;69.02
44198;BME280;30157;55.512;37.764;2023-05-16T01:38:22;100642.97;;;9.27;69.10
44198;BME280;30157;55.512;37.764;2023-05-16T01:42:00;100636.78;;;9.17;69.25
44198;BME280;30157;55.512;37.764;2023-05-16T01:44:01;100629.69;;;9.03;69.85
44198;BME280;30157;55.512;37.764;2023-05-16T01:46:32;100639.81;;;8.88;70.55
44198;BME280;30157;55.512;37.764;2023-05-16T01:49:25;100599.56;;;8.52;70.96
44198;BME280;30157;55.512;37.764;2023-05-16T01:51:59;100623.78;;;8.55;72.33
44198;BME280;30157;55.512;37.764;2023-05-16T01:54:30;100627.97;;;8.47;72.80
44198;BME280;30157;55.512;37.764;2023-05-16T01:56:57;100619.19;;;8.40;72.92
44198;BME280;30157;55.512;37.764;2023-05-16T01:59:24;100630.56;;;8.49;73.25
44198;BME280;30157;55.512;37.764;2023-05-16T02:01:53;100591.25;;;8.19;73.22
44198;BME280;30157;55.512;37.764;2023-05-16T02:04:21;100633.00;;;8.41;73.01
44198;BME280;30157;55.512;37.764;2023-05-16T02:06:50;100641.75;;;8.46;73.09
44198;BME280;30157;55.512;37.764;2023-05-16T02:09:16;100640.06;;;8.48;72.98
44198;BME280;30157;55.512;37.764;2023-05-16T02:11:42;100644.50;;;8.57;72.92
44198;BME280;30157;55.512;37.764;2023-05-16T02:14:09;100656.66;;;8.61;72.81
44198;BME280;30157;55.512;37.764;2023-05-16T02:16:36;100645.47;;;8.62;72.54
44198;BME280;30157;55.512;37.764;2023-05-16T02:19:02;100612.28;;;8.41;72.50
44198;BME280;30157;55.512;37.764;2023-05-16T02:21:47;100651.59;;;8.67;72.34
44198;BME280;30157;55.512;37.764;2023-05-16T02:24:13;100651.50;;;8.64;72.39
44198;BME280;30157;55.512;37.764;2023-05-16T02:26:39;100648.06;;;8.64;72.40
44198;BME280;30157;55.512;37.764;2023-05-16T02:29:05;100646.34;;;8.64;72.47
44198;BME280;30157;55.512;37.764;2023-05-16T02:31:31;100627.31;;;8.59;72.47
44198;BME280;30157;55.512;37.764;2023-05-16T02:33:58;100588.03;;;8.33;72.71
44198;BME280;30157;55.512;37.764;2023-05-16T02:36:24;100575.00;;;8.27;73.00
44198;BME280;30157;55.512;37.764;2023-05-16T02:38:50;100647.34;;;8.72;72.66
44198;BME280;30157;55.512;37.764;2023-05-16T02:41:16;100590.13;;;8.54;72.38
44198;BME280;30157;55.512;37.764;2023-05-16T02:43:42;100630.41;;;8.93;72.11
44198;BME280;30157;55.512;37.764;2023-05-16T02:46:29;100622.84;;;9.08;71.55
44198;BME280;30157;55.512;37.764;2023-05-16T02:48:56;100649.28;;;9.49;71.64
44198;BME280;30157;55.512;37.764;2023-05-16T02:51:24;100650.50;;;9.77;71.09
44198;BME280;30157;55.512;37.764;2023-05-16T02:53:51;100652.56;;;10.04;70.31
44198;BME280;30157;55.512;37.764;2023-05-16T02:56:18;100661.41;;;10.26;70.12
44198;BME280;30157;55.512;37.764;2023-05-16T02:58:46;100650.44;;;10.51;69.23
44198;BME280;30157;55.512;37.764;2023-05-16T03:01:13;100597.59;;;10.42;68.65
44198;BME280;30157;55.512;37.764;2023-05-16T03:03:38;100643.81;;;10.93;68.00
44198;BME280;30157;55.512;37.764;2023-05-16T03:06:04;100595.31;;;10.89;67.11
44198;BME280;30157;55.512;37.764;2023-05-16T03:08:32;100579.78;;;11.00;66.32
44198;BME280;30157;55.512;37.764;2023-05-16T03:10:58;100625.06;;;11.45;66.46
44198;BME280;30157;55.512;37.764;2023-05-16T03:13:24;100647.69;;;11.71;66.32
44198;BME280;30157;55.512;37.764;2023-05-16T03:15:51;100585.25;;;11.62;66.17
44198;BME280;30157;55.512;37.764;2023-05-16T03:18:16;100626.19;;;12.14;65.56
44198;BME280;30157;55.512;37.764;2023-05-16T03:20:42;100634.88;;;12.51;64.68
44198;BME280;30157;55.512;37.764;2023-05-16T03:23:08;100640.09;;;12.82;63.64
44198;BME280;30157;55.512;37.764;2023-05-16T03:25:36;100600.13;;;12.89;62.77
44198;BME280;30157;55.512;37.764;2023-05-16T03:28:06;100593.13;;;13.15;61.00
44198;BME280;30157;55.512;37.764;2023-05-16T03:30:35;100652.03;;;13.77;59.26
44198;BME280;30157;55.512;37.764;2023-05-16T03:33:01;100657.97;;;14.04;58.83
44198;BME280;30157;55.512;37.764;2023-05-16T03:35:27;100669.13;;;14.28;58.12
44198;BME280;30157;55.512;37.764;2023-05-16T03:37:53;100658.69;;;14.28;57.62
44198;BME280;30157;55.512;37.764;2023-05-16T03:40:20;100661.38;;;14.14;56.00
44198;BME280;30157;55.512;37.764;2023-05-16T03:42:46;100621.56;;;13.83;54.22
44198;BME280;30157;55.512;37.764;2023-05-16T03:45:12;100612.75;;;13.99;54.75
44198;BME280;30157;55.512;37.764;2023-05-16T03:47:38;100666.31;;;14.64;52.16
44198;BME280;30157;55.512;37.764;2023-05-16T03:50:05;100633.22;;;14.58;50.96
44198;BME280;30157;55.512;37.764;2023-05-16T03:52:32;100635.84;;;14.59;50.13
44198;BME280;30157;55.512;37.764;2023-05-16T03:54:58;100616.66;;;14.59;49.52
44198;BME280;30157;55.512;37.764;2023-05-16T03:57:24;100656.59;;;14.78;50.31
44198;BME280;30157;55.512;37.764;2023-05-16T03:59:50;100676.41;;;15.05;49.74
44198;BME280;30157;55.512;37.764;2023-05-16T04:02:15;100664.03;;;15.20;49.63
44198;BME280;30157;55.512;37.764;2023-05-16T04:04:41;100622.09;;;15.29;48.04
44198;BME280;30157;55.512;37.764;2023-05-16T04:07:07;100629.69;;;15.52;47.92
44198;BME280;30157;55.512;37.764;2023-05-16T04:09:32;100672.91;;;15.84;48.35
44198;BME280;30157;55.512;37.764;2023-05-16T04:11:58;100624.94;;;15.84;47.16
44198;BME280;30157;55.512;37.764;2023-05-16T04:14:26;100658.59;;;16.10;47.74
44198;BME280;30157;55.512;37.764;2023-05-16T04:16:52;100619.75;;;16.40;46.53
44198;BME280;30157;55.512;37.764;2023-05-16T04:19:18;100667.13;;;16.80;45.76
44198;BME280;30157;55.512;37.764;2023-05-16T04:21:43;100649.81;;;16.70;45.21
44198;BME280;30157;55.512;37.764;2023-05-16T04:24:09;100612.50;;;16.54;44.98
44198;BME280;30157;55.512;37.764;2023-05-16T04:26:35;100676.59;;;16.91;44.35
44198;BME280;30157;55.512;37.764;2023-05-16T04:29:04;100618.50;;;16.62;43.76
44198;BME280;30157;55.512;37.764;2023-05-16T04:31:30;100675.25;;;17.17;43.44
44198;BME280;30157;55.512;37.764;2023-05-16T04:33:56;100677.50;;;17.37;43.63
44198;BME280;30157;55.512;37.764;2023-05-16T04:36:22;100672.84;;;17.51;43.02
44198;BME280;30157;55.512;37.764;2023-05-16T04:38:48;100685.16;;;17.49;43.71
44198;BME280;30157;55.512;37.764;2023-05-16T04:41:14;100687.34;;;17.71;43.68
44198;BME280;30157;55.512;37.764;2023-05-16T04:43:40;100685.09;;;17.96;42.76
44198;BME280;30157;55.512;37.764;2023-05-16T04:46:06;100615.63;;;17.69;42.80
44198;BME280;30157;55.512;37.764;2023-05-16T04:48:33;100690.56;;;18.26;42.91
44198;BME280;30157;55.512;37.764;2023-05-16T04:50:59;100682.66;;;18.63;41.32
44198;BME280;30157;55.512;37.764;2023-05-16T04:53:25;100690.88;;;18.50;41.14
44198;BME280;30157;55.512;37.764;2023-05-16T04:55:50;100685.81;;;18.42;41.24
44198;BME280;30157;55.512;37.764;2023-05-16T04:58:16;100681.66;;;18.69;40.25
44198;BME280;30157;55.512;37.764;2023-05-16T05:00:42;100643.22;;;18.63;39.77
44198;BME280;30157;55.512;37.764;2023-05-16T05:03:07;100696.66;;;18.64;39.61
44198;BME280;30157;55.512;37.764;2023-05-16T05:05:33;100703.41;;;19.12;39.31
44198;BME280;30157;55.512;37.764;2023-05-16T05:07:59;100709.13;;;19.28;38.25
44198;BME280;30157;55.512;37.764;2023-05-16T05:10:26;100704.69;;;18.95;38.10
44198;BME280;30157;55.512;37.764;2023-05-16T05:12:52;100693.16;;;19.01;37.59
44198;BME280;30157;55.512;37.764;2023-05-16T05:15:18;100702.66;;;19.07;37.26
44198;BME280;30157;55.512;37.764;2023-05-16T05:17:44;100647.16;;;19.16;36.24
44198;BME280;30157;55.512;37.764;2023-05-16T05:20:10;100685.66;;;19.52;35.36
44198;BME280;30157;55.512;37.764;2023-05-16T05:22:36;100696.53;;;20.02;34.30
44198;BME280;30157;55.512;37.764;2023-05-16T05:25:04;100704.22;;;20.38;34.03
44198;BME280;30157;55.512;37.764;2023-05-16T05:27:30;100705.28;;;20.31;32.83
44198;BME280;30157;55.512;37.764;2023-05-16T05:29:56;100654.44;;;19.69;32.87
44198;BME280;30157;55.512;37.764;2023-05-16T05:32:22;100705.81;;;19.84;33.20
44198;BME280;30157;55.512;37.764;2023-05-16T05:34:47;100693.63;;;20.10;33.15
44198;BME280;30157;55.512;37.764;2023-05-16T05:37:13;100657.72;;;20.07;31.98
44198;BME280;30157;55.512;37.764;2023-05-16T05:39:39;100711.84;;;20.46;32.02
44198;BME280;30157;55.512;37.764;2023-05-16T05:42:05;100709.78;;;20.27;32.36
44198;BME280;30157;55.512;37.764;2023-05-16T05:44:31;100705.56;;;20.78;31.67
44198;BME280;30157;55.512;37.764;2023-05-16T05:46:58;100719.91;;;21.23;31.19
44198;BME280;30157;55.512;37.764;2023-05-16T05:49:25;100728.03;;;21.42;30.21
44198;BME280;30157;55.512;37.764;2023-05-16T05:51:51;100670.41;;;21.30;30.21
44198;BME280;30157;55.512;37.764;2023-05-16T05:54:18;100714.53;;;21.75;30.01
44198;BME280;30157;55.512;37.764;2023-05-16T05:56:44;100720.88;;;21.95;28.39
44198;BME280;30157;55.512;37.764;2023-05-16T05:59:10;100711.94;;;21.74;29.38
44198;BME280;30157;55.512;37.764;2023-05-16T06:01:36;100721.22;;;21.86;29.00
44198;BME280;30157;55.512;37.764;2023-05-16T06:04:02;100719.38;;;21.64;28.54
44198;BME280;30157;55.512;37.764;2023-05-16T06:06:28;100718.19;;;21.47;28.89
44198;BME280;30157;55.512;37.764;2023-05-16T06:08:54;100677.09;;;21.13;28.84
44198;BME280;30157;55.512;37.764;2023-05-16T06:11:20;100712.94;;;21.71;28.51
44198;BME280;30157;55.512;37.764;2023-05-16T06:13:46;100719.03;;;21.73;28.00
44198;BME280;30157;55.512;37.764;2023-05-16T06:16:12;100735.25;;;21.88;27.97
44198;BME280;30157;55.512;37.764;2023-05-16T06:18:38;100741.38;;;22.12;27.94
44198;BME280;30157;55.512;37.764;2023-05-16T06:21:04;100730.00;;;22.56;27.56
44198;BME280;30157;55.512;37.764;2023-05-16T06:23:32;100727.53;;;22.05;27.98
44198;BME280;30157;55.512;37.764;2023-05-16T06:25:58;100735.16;;;22.37;28.07
44198;BME280;30157;55.512;37.764;2023-05-16T06:28:23;100687.69;;;22.32;27.31
44198;BME280;30157;55.512;37.764;2023-05-16T06:30:49;100729.75;;;22.62;27.83
44198;BME280;30157;55.512;37.764;2023-05-16T06:33:17;100721.97;;;23.22;27.67
44198;BME280;30157;55.512;37.764;2023-05-16T06:35:43;100721.47;;;23.93;26.27
44198;BME280;30157;55.512;37.764;2023-05-16T06:38:09;100726.22;;;24.25;25.83
44198;BME280;30157;55.512;37.764;2023-05-16T06:40:34;100726.16;;;24.26;26.02
44198;BME280;30157;55.512;37.764;2023-05-16T06:43:02;100728.25;;;24.01;24.73
44198;BME280;30157;55.512;37.764;2023-05-16T06:45:28;100727.78;;;24.29;24.91
44198;BME280;30157;55.512;37.764;2023-05-16T06:47:54;100713.66;;;24.28;24.70
44198;BME280;30157;55.512;37.764;2023-05-16T06:50:20;100658.13;;;23.87;24.74
44198;BME280;30157;55.512;37.764;2023-05-16T06:52:46;100672.09;;;24.29;24.04
44198;BME280;30157;55.512;37.764;2023-05-16T06:55:11;100713.66;;;25.02;23.25
44198;BME280;30157;55.512;37.764;2023-05-16T06:57:37;100710.91;;;24.30;23.09
44198;BME280;30157;55.512;37.764;2023-05-16T07:00:03;100707.44;;;24.10;23.43
44198;BME280;30157;55.512;37.764;2023-05-16T07:02:34;100711.59;;;23.97;23.58
44198;BME280;30157;55.512;37.764;2023-05-16T07:05:00;100696.31;;;23.83;24.23
44198;BME280;30157;55.512;37.764;2023-05-16T07:07:26;100719.44;;;23.79;23.50
44198;BME280;30157;55.512;37.764;2023-05-16T07:09:51;100664.59;;;23.23;22.75
44198;BME280;30157;55.512;37.764;2023-05-16T07:12:17;100709.91;;;23.75;23.11
44198;BME280;30157;55.512;37.764;2023-05-16T07:14:43;100661.13;;;23.79;23.13
44198;BME280;30157;55.512;37.764;2023-05-16T07:17:09;100705.75;;;23.30;23.65
44198;BME280;30157;55.512;37.764;2023-05-16T07:19:35;100663.81;;;23.40;23.90
44198;BME280;30157;55.512;37.764;2023-05-16T07:22:00;100670.75;;;23.82;23.51
44198;BME280;30157;55.512;37.764;2023-05-16T07:24:26;100704.19;;;24.59;22.93
44198;BME280;30157;55.512;37.764;2023-05-16T07:26:52;100653.16;;;24.54;22.73
44198;BME280;30157;55.512;37.764;2023-05-16T07:29:17;100703.09;;;25.18;21.75
44198;BME280;30157;55.512;37.764;2023-05-16T07:31:43;100708.34;;;25.02;22.03
44198;BME280;30157;55.512;37.764;2023-05-16T07:34:09;100664.78;;;24.15;22.00
44198;BME280;30157;55.512;37.764;2023-05-16T07:36:37;100702.25;;;24.45;22.67
44198;BME280;30157;55.512;37.764;2023-05-16T07:39:03;100691.78;;;24.79;21.87
44198;BME280;30157;55.512;37.764;2023-05-16T07:41:29;100632.00;;;24.53;21.90
44198;BME280;30157;55.512;37.764;2023-05-16T07:43:55;100685.63;;;25.29;21.70
44198;BME280;30157;55.512;37.764;2023-05-16T07:46:21;100687.63;;;25.08;21.81
44198;BME280;30157;55.512;37.764;2023-05-16T07:48:47;100667.28;;;24.55;22.01
44198;BME280;30157;55.512;37.764;2023-05-16T07:51:12;100694.16;;;25.36;21.96
44198;BME280;30157;55.512;37.764;2023-05-16T07:53:38;100687.72;;;25.58;21.02
44198;BME280;30157;55.512;37.764;2023-05-16T07:56:04;100702.53;;;25.46;21.87
44198;BME280;30157;55.512;37.764;2023-05-16T07:58:31;100705.91;;;25.65;21.68
44198;BME280;30157;55.512;37.764;2023-05-16T08:00:57;100709.63;;;25.79;20.71
44198;BME280;30157;55.512;37.764;2023-05-16T08:03:23;100692.09;;;26.08;20.72
44198;BME280;30157;55.512;37.764;2023-05-16T08:05:48;100714.13;;;26.42;20.61
44198;BME280;30157;55.512;37.764;2023-05-16T08:08:14;100698.47;;;26.52;20.55
44198;BME280;30157;55.512;37.764;2023-05-16T08:10:40;100710.72;;;26.08;19.68
44198;BME280;30157;55.512;37.764;2023-05-16T08:13:06;100710.81;;;25.22;20.18
44198;BME280;30157;55.512;37.764;2023-05-16T08:15:31;100704.72;;;25.71;19.90
44198;BME280;30157;55.512;37.764;2023-05-16T08:17:57;100702.72;;;25.59;19.80
44198;BME280;30157;55.512;37.764;2023-05-16T08:20:24;100646.84;;;25.76;19.36
44198;BME280;30157;55.512;37.764;2023-05-16T08:22:50;100676.94;;;25.61;19.25
44198;BME280;30157;55.512;37.764;2023-05-16T08:25:17;100676.75;;;25.13;20.21
44198;BME280;30157;55.512;37.764;2023-05-16T08:27:48;100687.69;;;25.42;20.32
44198;BME280;30157;55.512;37.764;2023-05-16T08:30:14;100698.47;;;25.88;19.61
44198;BME280;30157;55.512;37.764;2023-05-16T08:32:40;100703.16;;;26.16;19.70
44198;BME280;30157;55.512;37.764;2023-05-16T08:35:06;100664.69;;;26.38;19.08
44198;BME280;30157;55.512;37.764;2023-05-16T08:37:32;100689.00;;;26.78;19.00
44198;BME280;30157;55.512;37.764;2023-05-16T08:39:59;100687.00;;;26.36;18.55
44198;BME280;30157;55.512;37.764;2023-05-16T08:42:25;100698.63;;;26.19;18.79
44198;BME280;30157;55.512;37.764;2023-05-16T08:44:52;100640.16;;;26.01;19.09
44198;BME280;30157;55.512;37.764;2023-05-16T08:47:18;100679.22;;;26.63;19.52
44198;BME280;30157;55.512;37.764;2023-05-16T08:49:47;100672.88;;;26.96;19.33
44198;BME280;30157;55.512;37.764;2023-05-16T08:52:18;100649.13;;;26.46;18.77
44198;BME280;30157;55.512;37.764;2023-05-16T08:54:46;100668.06;;;26.72;18.63
44198;BME280;30157;55.512;37.764;2023-05-16T08:57:15;100666.94;;;26.30;19.48
44198;BME280;30157;55.512;37.764;2023-05-16T08:59:41;100665.97;;;26.47;19.02
44198;BME280;30157;55.512;37.764;2023-05-16T09:02:07;100658.50;;;26.84;18.77
44198;BME280;30157;55.512;37.764;2023-05-16T09:04:34;100659.25;;;27.45;18.56
44198;BME280;30157;55.512;37.764;2023-05-16T09:07:01;100634.47;;;25.75;19.00
44198;BME280;30157;55.512;37.764;2023-05-16T09:09:27;100602.34;;;25.96;19.33
44198;BME280;30157;55.512;37.764;2023-05-16T09:11:53;100633.03;;;25.86;18.99
44198;BME280;30157;55.512;37.764;2023-05-16T09:14:18;100652.78;;;25.97;19.02
44198;BME280;30157;55.512;37.764;2023-05-16T09:16:44;100648.91;;;26.35;18.96
44198;BME280;30157;55.512;37.764;2023-05-16T09:19:35;100656.19;;;25.99;19.14
44198;BME280;30157;55.512;37.764;2023-05-16T09:22:01;100655.63;;;26.57;19.04
44198;BME280;30157;55.512;37.764;2023-05-16T09:24:27;100667.56;;;26.03;19.75
44198;BME280;30157;55.512;37.764;2023-05-16T09:26:53;100661.19;;;26.06;19.89
44198;BME280;30157;55.512;37.764;2023-05-16T09:29:19;100639.66;;;26.57;19.69
44198;BME280;30157;55.512;37.764;2023-05-16T09:31:48;100620.06;;;26.88;19.41
44198;BME280;30157;55.512;37.764;2023-05-16T09:34:14;100635.06;;;27.20;18.63
44198;BME280;30157;55.512;37.764;2023-05-16T09:36:39;100652.06;;;27.03;18.40
44198;BME280;30157;55.512;37.764;2023-05-16T09:39:06;100645.50;;;27.66;18.03
44198;BME280;30157;55.512;37.764;2023-05-16T09:41:33;100614.56;;;27.78;18.46
44198;BME280;30157;55.512;37.764;2023-05-16T09:44:03;100640.41;;;28.05;17.93
44198;BME280;30157;55.512;37.764;2023-05-16T09:46:33;100657.03;;;27.66;17.85
44198;BME280;30157;55.512;37.764;2023-05-16T09:48:58;100661.50;;;27.66;18.53
44198;BME280;30157;55.512;37.764;2023-05-16T09:51:25;100639.56;;;27.48;18.45
44198;BME280;30157;55.512;37.764;2023-05-16T09:53:51;100638.94;;;28.13;18.02
44198;BME280;30157;55.512;37.764;2023-05-16T09:56:17;100629.13;;;28.41;17.47
44198;BME280;30157;55.512;37.764;2023-05-16T09:58:43;100614.66;;;28.71;17.66
44198;BME280;30157;55.512;37.764;2023-05-16T10:01:10;100628.50;;;28.50;17.42
44198;BME280;30157;55.512;37.764;2023-05-16T10:03:39;100626.03;;;27.37;18.78
44198;BME280;30157;55.512;37.764;2023-05-16T10:06:05;100624.41;;;27.63;19.30
44198;BME280;30157;55.512;37.764;2023-05-16T10:08:33;100621.41;;;28.77;17.96
44198;BME280;30157;55.512;37.764;2023-05-16T10:11:02;100645.25;;;28.93;17.77
44198;BME280;30157;55.512;37.764;2023-05-16T10:13:30;100620.31;;;28.26;18.73
44198;BME280;30157;55.512;37.764;2023-05-16T10:15:57;100574.66;;;27.76;18.54
44198;BME280;30157;55.512;37.764;2023-05-16T10:18:28;100627.09;;;28.45;18.28
44198;BME280;30157;55.512;37.764;2023-05-16T10:20:56;100613.59;;;28.74;18.14
44198;BME280;30157;55.512;37.764;2023-05-16T10:23:24;100525.91;;;28.67;18.23
44198;BME280;30157;55.512;37.764;2023-05-16T10:25:52;100606.22;;;29.16;18.72
44198;BME280;30157;55.512;37.764;2023-05-16T10:28:20;100603.25;;;28.82;18.34
44198;BME280;30157;55.512;37.764;2023-05-16T10:30:46;100582.03;;;28.40;19.35
44198;BME280;30157;55.512;37.764;2023-05-16T10:33:13;100596.75;;;28.73;18.76
44198;BME280;30157;55.512;37.764;2023-05-16T10:35:40;100536.31;;;28.32;18.84
44198;BME280;30157;55.512;37.764;2023-05-16T10:38:07;100581.56;;;28.21;18.60
44198;BME280;30157;55.512;37.764;2023-05-16T10:40:36;100613.97;;;27.87;19.07
44198;BME280;30157;55.512;37.764;2023-05-16T10:43:04;100603.16;;;28.71;18.32
44198;BME280;30157;55.512;37.764;2023-05-16T10:45:30;100552.38;;;28.45;18.96
44198;BME280;30157;55.512;37.764;2023-05-16T10:48:05;100594.41;;;28.81;18.62
44198;BME280;30157;55.512;37.764;2023-05-16T10:50:35;100585.03;;;28.08;18.68
44198;BME280;30157;55.512;37.764;2023-05-16T10:53:19;100575.47;;;27.91;19.10
44198;BME280;30157;55.512;37.764;2023-05-16T10:55:50;100599.16;;;27.69;19.79
44198;BME280;30157;55.512;37.764;2023-05-16T11:01:29;100579.31;;;28.67;18.48
44198;BME280;30157;55.512;37.764;2023-05-16T11:16:56;100587.50;;;28.52;18.66
44198;BME280;30157;55.512;37.764;2023-05-16T11:19:32;100562.69;;;28.24;19.15
44198;BME280;30157;55.512;37.764;2023-05-16T11:22:05;100537.88;;;28.09;18.83
44198;BME280;30157;55.512;37.764;2023-05-16T11:24:32;100567.84;;;28.40;18.50
44198;BME280;30157;55.512;37.764;2023-05-16T11:27:00;100567.22;;;28.09;18.90
44198;BME280;30157;55.512;37.764;2023-05-16T11:29:27;100512.97;;;27.95;18.78
44198;BME280;30157;55.512;37.764;2023-05-16T11:31:53;100557.44;;;28.22;18.47
44198;BME280;30157;55.512;37.764;2023-05-16T11:34:19;100506.81;;;27.53;19.52
44198;BME280;30157;55.512;37.764;2023-05-16T11:36:45;100539.22;;;27.47;20.10
44198;BME280;30157;55.512;37.764;2023-05-16T11:39:12;100499.00;;;27.37;19.40
44198;BME280;30157;55.512;37.764;2023-05-16T11:41:38;100562.97;;;28.19;19.15
44198;BME280;30157;55.512;37.764;2023-05-16T11:44:03;100513.63;;;27.99;19.28
44198;BME280;30157;55.512;37.764;2023-05-16T11:46:32;100556.84;;;28.44;19.00
44198;BME280;30157;55.512;37.764;2023-05-16T11:48:58;100568.38;;;28.58;19.64
44198;BME280;30157;55.512;37.764;2023-05-16T11:51:24;100550.47;;;28.73;18.50
44198;BME280;30157;55.512;37.764;2023-05-16T11:53:50;100550.63;;;28.31;18.80
44198;BME280;30157;55.512;37.764;2023-05-16T11:56:16;100504.38;;;28.05;18.27
44198;BME280;30157;55.512;37.764;2023-05-16T11:58:43;100533.84;;;28.16;18.81
44198;BME280;30157;55.512;37.764;2023-05-16T12:01:10;100565.34;;;27.96;18.73
44198;BME280;30157;55.512;37.764;2023-05-16T12:03:36;100552.38;;;28.45;18.52
44198;BME280;30157;55.512;37.764;2023-05-16T12:06:03;100555.03;;;28.58;18.62
44198;BME280;30157;55.512;37.764;2023-05-16T12:08:29;100545.72;;;28.63;18.48
44198;BME280;30157;55.512;37.764;2023-05-16T12:10:55;100545.00;;;27.81;19.11
44198;BME280;30157;55.512;37.764;2023-05-16T12:13:22;100554.22;;;27.90;18.91
44198;BME280;30157;55.512;37.764;2023-05-16T12:15:50;100480.66;;;27.04;19.51
44198;BME280;30157;55.512;37.764;2023-05-16T12:18:17;100487.69;;;26.76;19.94
44198;BME280;30157;55.512;37.764;2023-05-16T12:20:43;100547.00;;;26.63;20.43
44198;BME280;30157;55.512;37.764;2023-05-16T12:23:13;100492.59;;;26.39;20.36
44198;BME280;30157;55.512;37.764;2023-05-16T12:25:44;100551.22;;;26.37;20.58
44198;BME280;30157;55.512;37.764;2023-05-16T12:28:12;100563.34;;;25.31;21.70
44198;BME280;30157;55.512;37.764;2023-05-16T12:30:43;100546.53;;;25.14;21.76
44198;BME280;30157;55.512;37.764;2023-05-16T12:33:12;100551.19;;;24.77;22.01
44198;BME280;30157;55.512;37.764;2023-05-16T12:35:43;100443.09;;;23.58;23.48
44198;BME280;30157;55.512;37.764;2023-05-16T12:38:11;100523.34;;;23.03;24.41
44198;BME280;30157;55.512;37.764;2023-05-16T12:40:39;100539.84;;;22.27;25.37
44198;BME280;30157;55.512;37.764;2023-05-16T12:43:21;100372.88;;;21.32;25.53
44198;BME280;30157;55.512;37.764;2023-05-16T12:48:17;100519.59;;;22.06;25.52
44198;BME280;30157;55.512;37.764;2023-05-16T12:50:43;100462.00;;;21.71;25.84
44198;BME280;30157;55.512;37.764;2023-05-16T12:53:12;100542.69;;;22.01;25.90
44198;BME280;30157;55.512;37.764;2023-05-16T12:55:38;100516.13;;;21.61;26.51
44198;BME280;30157;55.512;37.764;2023-05-16T12:58:04;100484.66;;;21.31;26.98
44198;BME280;30157;55.512;37.764;2023-05-16T13:00:30;100532.34;;;21.50;27.12
44198;BME280;30157;55.512;37.764;2023-05-16T13:02:59;100521.47;;;21.36;27.22
44198;BME280;30157;55.512;37.764;2023-05-16T13:05:26;100506.78;;;21.05;27.82
44198;BME280;30157;55.512;37.764;2023-05-16T13:07:54;100497.94;;;20.82;28.12
44198;BME280;30157;55.512;37.764;2023-05-16T13:10:20;100415.09;;;20.39;28.72
44198;BME280;30157;55.512;37.764;2023-05-16T13:12:46;100449.63;;;20.56;28.10